createdAt,value
2018-07-27T07:54:12.954Z,5.80
2018-07-27T07:56:41.459Z,6.67
2018-07-27T07:59:09.596Z,6.12
2018-07-27T08:01:38.077Z,7.10
2018-07-27T08:04:06.658Z,6.00
2018-07-27T08:06:35.209Z,6.10
2018-07-27T08:09:05.354Z,6.45
2018-07-27T08:11:33.837Z,6.42
2018-07-27T08:14:02.310Z,5.92
2018-07-27T08:16:30.813Z,6.40
2018-07-27T08:18:59.337Z,5.90
2018-07-27T08:21:28.277Z,6.03
2018-07-27T08:23:56.854Z,6.10
2018-07-27T08:26:59.075Z,6.65
2018-07-27T08:29:30.678Z,6.67
2018-07-27T08:31:59.562Z,6.28
2018-07-27T08:34:28.055Z,6.47
2018-07-27T08:36:56.536Z,6.22
2018-07-27T08:39:26.329Z,6.10
2018-07-27T08:41:54.878Z,5.67
2018-07-27T08:44:25.495Z,5.78
2018-07-27T08:46:54.129Z,6.45
2018-07-27T08:49:22.609Z,5.80
2018-07-27T08:51:51.101Z,6.30
2018-07-27T08:54:19.605Z,5.70
2018-07-27T08:56:48.232Z,6.00
2018-07-27T08:59:16.710Z,5.92
2018-07-27T09:01:45.191Z,6.65
2018-07-27T09:04:13.671Z,6.33
2018-07-27T09:06:42.208Z,6.40
2018-07-27T09:09:12.632Z,5.90
2018-07-27T09:11:41.125Z,5.85
2018-07-27T09:14:09.650Z,5.85
2018-07-27T09:16:38.199Z,4.95
2018-07-27T09:19:06.681Z,5.58
2018-07-27T09:21:35.204Z,5.50
2018-07-27T09:24:03.774Z,5.03
2018-07-27T09:26:32.354Z,5.17
2018-07-27T09:29:00.846Z,5.00
2018-07-27T09:31:29.357Z,4.53
2018-07-27T09:33:57.832Z,4.10
2018-07-27T09:36:26.330Z,4.60
2018-07-27T09:38:54.913Z,4.70
2018-07-27T09:41:23.434Z,4.95
2018-07-27T09:43:51.891Z,5.03
2018-07-27T09:46:20.478Z,5.47
2018-07-27T09:48:52.920Z,4.83
2018-07-27T09:51:22.536Z,5.30
2018-07-27T09:53:51.098Z,5.42
2018-07-27T09:56:19.624Z,4.78
2018-07-27T09:58:48.095Z,5.08
2018-07-27T10:01:21.871Z,5.33
2018-07-27T10:03:50.757Z,5.58
2018-07-27T10:06:19.341Z,5.75
2018-07-27T10:08:47.849Z,5.33
2018-07-27T10:11:16.364Z,5.50
2018-07-27T10:13:44.865Z,5.45
2018-07-27T10:16:13.378Z,5.47
2018-07-27T10:18:41.852Z,4.90
2018-07-27T10:21:10.318Z,5.55
2018-07-27T10:23:38.818Z,4.50
2018-07-27T10:26:07.410Z,4.40
2018-07-27T10:28:35.898Z,4.62
2018-07-27T10:31:04.449Z,4.40
2018-07-27T10:33:32.876Z,4.33
2018-07-27T10:36:01.444Z,4.58
2018-07-27T10:38:29.955Z,4.40
2018-07-27T10:40:58.410Z,4.85
2018-07-27T10:43:26.902Z,4.42
2018-07-27T10:45:55.483Z,3.95
2018-07-27T10:48:23.980Z,4.72
2018-07-27T10:50:52.474Z,4.40
2018-07-27T10:53:21.201Z,4.05
2018-07-27T10:55:49.783Z,4.15
2018-07-27T10:58:18.280Z,4.33
2018-07-27T11:00:46.753Z,4.33
2018-07-27T11:03:15.227Z,4.25
2018-07-27T11:05:43.727Z,4.50
2018-07-27T11:08:12.214Z,4.17
2018-07-27T11:10:40.675Z,4.22
2018-07-27T11:13:09.702Z,3.85
2018-07-27T11:15:38.231Z,4.05
2018-07-27T11:18:06.762Z,4.12
2018-07-27T11:20:36.016Z,4.22
2018-07-27T11:23:04.494Z,4.20
2018-07-27T11:25:33.113Z,4.30
2018-07-27T11:28:01.581Z,4.10
2018-07-27T11:30:30.060Z,3.77
2018-07-27T11:32:58.545Z,3.87
2018-07-27T11:35:27.082Z,3.50
2018-07-27T11:37:55.575Z,3.33
2018-07-27T11:40:24.144Z,3.83
2018-07-27T11:42:52.615Z,3.52
2018-07-27T11:45:21.104Z,3.27
2018-07-27T11:47:49.576Z,3.20
2018-07-27T11:50:18.143Z,3.45
2018-07-27T11:52:46.687Z,3.35
2018-07-27T11:55:15.390Z,2.83
2018-07-27T11:57:44.053Z,3.85
2018-07-27T12:00:12.575Z,3.42
2018-07-27T12:02:41.142Z,3.00
2018-07-27T12:05:09.688Z,2.83
2018-07-27T12:07:37.858Z,2.70
2018-07-27T12:10:06.532Z,2.95
2018-07-27T12:12:35.011Z,3.45
2018-07-27T12:15:03.741Z,3.50
2018-07-27T12:17:32.072Z,3.30
2018-07-27T12:20:00.575Z,3.35
2018-07-27T12:22:29.122Z,3.25
2018-07-27T12:24:57.897Z,3.35
2018-07-27T12:27:26.412Z,3.22
2018-07-27T12:29:54.887Z,3.50
2018-07-27T12:32:23.408Z,3.33
2018-07-27T12:34:52.243Z,3.85
2018-07-27T12:37:20.784Z,4.00
2018-07-27T12:39:49.315Z,3.80
2018-07-27T12:42:17.794Z,3.65
2018-07-27T12:44:46.273Z,4.22
2018-07-27T12:47:14.786Z,4.08
2018-07-27T12:49:43.251Z,3.95
2018-07-27T12:52:11.875Z,3.98
2018-07-27T12:54:40.346Z,3.70
2018-07-27T12:57:08.919Z,3.62
2018-07-27T12:59:37.402Z,3.67
2018-07-27T13:02:05.922Z,3.55
2018-07-27T13:04:34.385Z,3.30
2018-07-27T13:07:02.965Z,3.83
2018-07-27T13:09:31.509Z,3.55
2018-07-27T13:11:59.967Z,3.90
2018-07-27T13:14:28.460Z,3.47
2018-07-27T13:17:01.898Z,4.20
2018-07-27T13:19:31.419Z,4.62
2018-07-27T13:21:59.980Z,3.98
2018-07-27T13:26:57.118Z,4.25
2018-07-27T13:29:25.775Z,4.30
2018-07-27T13:31:55.563Z,4.47
2018-07-27T13:34:34.449Z,3.85
2018-07-27T13:37:03.328Z,4.00
2018-07-27T13:39:32.513Z,3.80
2018-07-27T13:42:02.011Z,3.40
2018-07-27T13:44:31.810Z,3.58
2018-07-27T13:47:00.744Z,3.35
2018-07-27T13:49:29.503Z,3.60
2018-07-27T13:51:58.685Z,4.55
2018-07-27T13:54:28.079Z,5.17
2018-07-27T13:56:56.699Z,6.75
2018-07-27T13:59:25.195Z,10.70
2018-07-27T14:01:53.766Z,17.20
2018-07-27T14:04:22.242Z,25.75
2018-07-27T14:06:52.130Z,43.00
2018-07-27T14:09:20.605Z,61.88
2018-07-27T14:11:49.199Z,87.27
2018-07-27T14:14:18.278Z,130.32
2018-07-27T14:16:46.853Z,189.57
2018-07-27T14:19:16.269Z,247.33
2018-07-27T14:21:44.972Z,292.07
2018-07-27T14:24:13.445Z,321.62
2018-07-27T14:26:42.139Z,345.35
2018-07-27T14:29:10.699Z,368.88
2018-07-27T14:31:39.111Z,385.77
2018-07-27T14:34:08.526Z,404.95
2018-07-27T14:36:37.126Z,411.62
2018-07-27T14:39:09.044Z,422.73
2018-07-27T14:41:37.540Z,433.40
2018-07-27T14:44:06.194Z,448.07
2018-07-27T14:46:35.000Z,460.70
2018-07-27T14:49:07.705Z,459.55
2018-07-27T14:51:36.275Z,453.50
2018-07-27T14:54:05.673Z,440.38
2018-07-27T14:56:34.268Z,433.30
2018-07-27T14:59:02.749Z,428.32
2018-07-27T15:01:31.267Z,409.98
2018-07-27T15:03:59.793Z,408.12
2018-07-27T15:06:28.363Z,407.60
2018-07-27T15:08:56.837Z,406.95
2018-07-27T15:11:24.996Z,412.10
2018-07-27T15:13:53.519Z,402.10
2018-07-27T15:16:22.162Z,396.12
2018-07-27T15:18:50.600Z,385.35
2018-07-27T15:21:19.092Z,376.55
2018-07-27T15:23:47.613Z,370.17
2018-07-27T15:26:16.711Z,359.73
2018-07-27T15:28:45.182Z,347.07
2018-07-27T15:31:13.663Z,331.60
2018-07-27T15:33:42.632Z,302.87
2018-07-27T15:36:11.150Z,284.62
2018-07-27T15:38:41.398Z,268.37
2018-07-27T15:41:09.906Z,262.00
2018-07-27T15:43:38.436Z,254.10
2018-07-27T15:46:07.050Z,240.72
2018-07-27T15:48:35.584Z,242.05
2018-07-27T15:51:04.038Z,233.82
2018-07-27T15:53:32.495Z,224.73
2018-07-27T15:56:01.045Z,219.07
2018-07-27T15:58:29.517Z,210.40
2018-07-27T16:00:57.977Z,204.65
2018-07-27T16:03:26.451Z,201.15
2018-07-27T16:05:54.955Z,187.70
2018-07-27T16:08:23.427Z,169.70
2018-07-27T16:10:51.899Z,159.07
2018-07-27T16:13:20.424Z,151.42
2018-07-27T16:15:49.019Z,143.70
2018-07-27T16:18:17.564Z,136.75
2018-07-27T16:20:46.038Z,124.53
2018-07-27T16:23:14.560Z,106.50
2018-07-27T16:25:43.023Z,96.28
2018-07-27T16:28:11.483Z,95.28
2018-07-27T16:30:39.988Z,88.78
2018-07-27T16:33:08.447Z,84.87
2018-07-27T16:35:36.912Z,73.72
2018-07-27T16:38:05.401Z,68.70
2018-07-27T16:40:33.890Z,61.53
2018-07-27T16:43:02.379Z,52.45
2018-07-27T16:45:30.900Z,46.58
2018-07-27T16:47:59.413Z,41.68
2018-07-27T16:50:27.902Z,40.30
2018-07-27T16:52:56.391Z,38.25
2018-07-27T16:55:24.874Z,35.73
2018-07-27T16:57:53.619Z,32.48
2018-07-27T17:00:22.137Z,31.23
2018-07-27T17:02:51.329Z,21.17
2018-07-27T17:05:19.834Z,10.63
2018-07-27T17:07:48.358Z,5.10
2018-07-27T17:10:16.881Z,2.95
2018-07-27T17:12:45.352Z,6.80
2018-07-27T17:15:13.823Z,7.00
2018-07-27T17:17:42.375Z,6.12
2018-07-27T17:20:11.416Z,5.80
2018-07-27T17:22:39.855Z,5.53
2018-07-27T17:25:08.053Z,5.55
2018-07-27T17:27:37.156Z,5.20
2018-07-27T17:30:07.423Z,5.58
2018-07-27T17:32:36.416Z,5.70
2018-07-27T17:35:05.129Z,5.60
2018-07-27T17:37:34.042Z,5.22
2018-07-27T17:40:02.524Z,5.33
2018-07-27T17:42:31.020Z,5.30
2018-07-27T17:44:59.494Z,5.42
2018-07-27T17:47:28.087Z,5.58
2018-07-27T17:49:56.563Z,5.60
2018-07-27T17:52:25.052Z,4.97
2018-07-27T17:54:53.688Z,5.47
2018-07-27T17:57:22.225Z,5.20
2018-07-27T17:59:50.717Z,6.17
2018-07-27T18:02:19.375Z,5.08
2018-07-27T18:04:47.906Z,5.35
2018-07-27T18:07:16.564Z,4.97
2018-07-27T18:09:44.928Z,5.30
2018-07-27T18:12:13.432Z,5.05
2018-07-27T18:14:41.957Z,5.12
2018-07-27T18:17:10.507Z,4.97
2018-07-27T18:19:38.970Z,5.08
2018-07-27T18:22:07.446Z,5.60
2018-07-27T18:24:36.053Z,5.42
2018-07-27T18:27:05.158Z,5.20
2018-07-27T18:29:33.630Z,4.90
2018-07-27T18:32:02.207Z,5.25
2018-07-27T18:34:30.687Z,5.12
2018-07-27T18:36:59.226Z,5.75
2018-07-27T18:39:27.709Z,6.45
2018-07-27T18:41:56.174Z,6.35
2018-07-27T18:44:24.651Z,6.53
2018-07-27T18:46:53.255Z,5.85
2018-07-27T18:49:21.732Z,5.67
2018-07-27T18:51:49.895Z,6.00
2018-07-27T18:54:18.341Z,5.67
2018-07-27T18:56:46.931Z,5.87
2018-07-27T18:59:15.440Z,5.50
2018-07-27T19:01:44.075Z,6.15
2018-07-27T19:04:12.528Z,5.45
2018-07-27T19:06:41.100Z,6.03
2018-07-27T19:09:12.017Z,5.87
2018-07-27T19:11:40.526Z,6.22
2018-07-27T19:14:09.167Z,6.00
2018-07-27T19:16:37.667Z,8.73
2018-07-27T19:19:06.156Z,8.50
2018-07-27T19:21:34.648Z,8.50
2018-07-27T19:24:03.172Z,7.67
2018-07-27T19:26:31.715Z,6.33
2018-07-27T19:29:00.213Z,6.20
2018-07-27T19:31:28.667Z,6.55
2018-07-27T19:33:57.159Z,6.60
2018-07-27T19:36:25.721Z,6.15
2018-07-27T19:38:54.187Z,6.00
2018-07-27T19:41:22.383Z,6.67
2018-07-27T19:43:50.869Z,6.60
2018-07-27T19:46:19.417Z,6.60
2018-07-27T19:48:47.921Z,6.55
2018-07-27T19:51:16.421Z,6.33
2018-07-27T19:53:44.903Z,6.70
2018-07-27T19:56:13.448Z,6.72
2018-07-27T19:58:41.913Z,6.70
2018-07-27T20:01:10.449Z,7.00
2018-07-27T20:03:38.922Z,6.92
2018-07-27T20:06:07.484Z,7.03
2018-07-27T20:08:35.982Z,7.70
2018-07-27T20:11:04.466Z,7.87
2018-07-27T20:13:32.954Z,9.13
2018-07-27T20:16:02.277Z,7.20
2018-07-27T20:18:30.799Z,7.95
2018-07-27T20:20:59.286Z,7.40
2018-07-27T20:23:27.776Z,7.75
2018-07-27T20:25:56.455Z,6.53
2018-07-27T20:28:25.222Z,8.15
2018-07-27T20:30:53.872Z,7.20
2018-07-27T20:33:22.352Z,9.13
2018-07-27T20:35:50.925Z,9.13
2018-07-27T20:38:19.449Z,8.80
2018-07-27T20:40:47.928Z,8.78
2018-07-27T20:43:16.421Z,7.80
2018-07-27T20:45:44.935Z,8.20
2018-07-27T20:48:13.424Z,8.00
2018-07-27T20:50:41.901Z,7.78
2018-07-27T20:53:10.369Z,8.50
2018-07-27T20:55:38.839Z,7.40
2018-07-27T20:58:08.037Z,8.18
2018-07-27T21:00:36.523Z,8.28
2018-07-27T21:03:05.181Z,7.85
2018-07-27T21:05:33.669Z,8.23
2018-07-27T21:08:02.669Z,8.68
2018-07-27T21:10:31.402Z,8.15
2018-07-27T21:12:59.910Z,8.70
2018-07-27T21:15:28.400Z,7.80
2018-07-27T21:17:56.913Z,7.87
2018-07-27T21:20:25.471Z,7.30
2018-07-27T21:22:53.949Z,7.50
2018-07-27T21:25:22.434Z,7.87
2018-07-27T21:27:51.250Z,7.72
2018-07-27T21:30:19.713Z,7.97
2018-07-27T21:32:48.202Z,7.42
2018-07-27T21:35:16.749Z,8.08
2018-07-27T21:37:45.187Z,7.80
2018-07-27T21:40:13.687Z,8.00
2018-07-27T21:42:42.193Z,7.47
2018-07-27T21:45:10.694Z,7.05
2018-07-27T21:47:39.253Z,6.97
2018-07-27T21:50:08.141Z,7.05
2018-07-27T21:52:36.638Z,7.15
2018-07-27T21:55:05.370Z,7.33
2018-07-27T21:57:33.895Z,7.10
2018-07-27T22:00:02.381Z,7.17
2018-07-27T22:02:30.879Z,6.80
2018-07-27T22:04:59.440Z,6.62
2018-07-27T22:07:28.158Z,7.20
2018-07-27T22:09:57.309Z,6.78
2018-07-27T22:12:27.212Z,7.33
2018-07-27T22:14:56.604Z,7.33
2018-07-27T22:17:25.841Z,7.50
2018-07-27T22:19:56.213Z,6.90
2018-07-27T22:22:24.690Z,6.80
2018-07-27T22:24:53.226Z,7.10
2018-07-27T22:27:25.298Z,7.40
2018-07-27T22:29:54.756Z,7.65
2018-07-27T22:32:23.260Z,7.40
2018-07-27T22:34:51.761Z,6.78
2018-07-27T22:37:20.384Z,6.75
2018-07-27T22:39:48.977Z,6.83
2018-07-27T22:42:17.483Z,6.55
2018-07-27T22:44:46.100Z,6.58
2018-07-27T22:47:14.667Z,6.70
2018-07-27T22:49:43.199Z,6.97
2018-07-27T22:52:11.734Z,6.90
2018-07-27T22:54:40.371Z,6.67
